sensor_id;sensor_type;location;lat;lon;timestamp;pressure;altitude;pressure_sealevel;temperature;humidity
46876;BME280;32866;50.160;14.768;2023-11-21T00:01:59;98686.53;;;7.84;100.00
46876;BME280;32866;50.160;14.768;2023-11-21T00:04:25;98667.88;;;7.69;100.00
46876;BME280;32866;50.160;14.768;2023-11-21T00:06:54;98703.03;;;7.93;100.00
46876;BME280;32866;50.160;14.768;2023-11-21T00:09:20;98692.75;;;7.84;100.00
46876;BME280;32866;50.160;14.768;2023-11-21T00:11:46;98666.66;;;7.57;100.00
46876;BME280;32866;50.160;14.768;2023-11-21T00:14:12;98701.59;;;7.88;100.00
46876;BME280;32866;50.160;14.768;2023-11-21T00:16:38;98687.19;;;7.75;100.00
46876;BME280;32866;50.160;14.768;2023-11-21T00:19:04;98704.13;;;7.83;100.00
46876;BME280;32866;50.160;14.768;2023-11-21T00:21:30;98693.22;;;7.83;100.00
46876;BME280;32866;50.160;14.768;2023-11-21T00:23:58;98659.00;;;7.52;100.00
46876;BME280;32866;50.160;14.768;2023-11-21T00:26:24;98650.97;;;7.61;100.00
46876;BME280;32866;50.160;14.768;2023-11-21T00:28:50;98693.41;;;7.75;100.00
46876;BME280;32866;50.160;14.768;2023-11-21T00:31:16;98667.00;;;7.72;100.00
46876;BME280;32866;50.160;14.768;2023-11-21T00:33:42;98696.03;;;7.92;100.00
46876;BME280;32866;50.160;14.768;2023-11-21T00:36:09;98645.72;;;7.54;100.00
46876;BME280;32866;50.160;14.768;2023-11-21T00:38:36;98691.00;;;7.77;100.00
46876;BME280;32866;50.160;14.768;2023-11-21T00:41:02;98718.94;;;7.82;100.00
46876;BME280;32866;50.160;14.768;2023-11-21T00:43:28;98662.19;;;7.51;100.00
46876;BME280;32866;50.160;14.768;2023-11-21T00:45:54;98668.31;;;7.55;100.00
46876;BME280;32866;50.160;14.768;2023-11-21T00:48:20;98691.97;;;7.71;100.00
46876;BME280;32866;50.160;14.768;2023-11-21T00:50:46;98701.25;;;7.73;100.00
46876;BME280;32866;50.160;14.768;2023-11-21T00:53:12;98706.31;;;7.88;100.00
46876;BME280;32866;50.160;14.768;2023-11-21T00:55:38;98683.38;;;7.59;100.00
46876;BME280;32866;50.160;14.768;2023-11-21T00:58:07;98699.72;;;7.72;100.00
46876;BME280;32866;50.160;14.768;2023-11-21T01:00:33;98672.75;;;7.49;100.00
46876;BME280;32866;50.160;14.768;2023-11-21T01:02:59;98662.06;;;7.41;100.00
46876;BME280;32866;50.160;14.768;2023-11-21T01:05:25;98672.97;;;7.41;100.00
46876;BME280;32866;50.160;14.768;2023-11-21T01:07:52;98693.63;;;7.68;100.00
46876;BME280;32866;50.160;14.768;2023-11-21T01:10:18;98721.09;;;7.61;100.00
46876;BME280;32866;50.160;14.768;2023-11-21T01:12:45;98724.28;;;7.72;100.00
46876;BME280;32866;50.160;14.768;2023-11-21T01:15:11;98721.53;;;7.72;100.00
46876;BME280;32866;50.160;14.768;2023-11-21T01:17:38;98708.75;;;7.56;100.00
46876;BME280;32866;50.160;14.768;2023-11-21T01:20:04;98730.72;;;7.78;100.00
46876;BME280;32866;50.160;14.768;2023-11-21T01:22:38;98708.09;;;7.52;100.00
46876;BME280;32866;50.160;14.768;2023-11-21T01:25:04;98720.13;;;7.80;100.00
46876;BME280;32866;50.160;14.768;2023-11-21T01:27:34;98708.34;;;7.71;100.00
46876;BME280;32866;50.160;14.768;2023-11-21T01:30:01;98682.16;;;7.48;100.00
46876;BME280;32866;50.160;14.768;2023-11-21T01:32:27;98698.81;;;7.50;100.00
46876;BME280;32866;50.160;14.768;2023-11-21T01:34:54;98721.09;;;7.74;100.00
46876;BME280;32866;50.160;14.768;2023-11-21T01:37:24;98723.72;;;7.77;100.00
46876;BME280;32866;50.160;14.768;2023-11-21T01:39:56;98724.50;;;7.78;100.00
46876;BME280;32866;50.160;14.768;2023-11-21T01:42:22;98724.06;;;7.67;100.00
46876;BME280;32866;50.160;14.768;2023-11-21T01:44:49;98708.22;;;7.61;100.00
46876;BME280;32866;50.160;14.768;2023-11-21T01:47:16;98726.34;;;7.68;100.00
46876;BME280;32866;50.160;14.768;2023-11-21T01:49:44;98722.72;;;7.58;100.00
46876;BME280;32866;50.160;14.768;2023-11-21T01:52:12;98724.69;;;7.58;100.00
46876;BME280;32866;50.160;14.768;2023-11-21T01:54:39;98719.44;;;7.51;100.00
46876;BME280;32866;50.160;14.768;2023-11-21T01:57:05;98698.78;;;7.24;100.00
46876;BME280;32866;50.160;14.768;2023-11-21T01:59:36;98708.13;;;7.23;100.00
46876;BME280;32866;50.160;14.768;2023-11-21T02:02:06;98718.66;;;7.37;100.00
46876;BME280;32866;50.160;14.768;2023-11-21T02:04:33;98689.00;;;7.10;100.00
46876;BME280;32866;50.160;14.768;2023-11-21T02:07:00;98714.06;;;7.05;100.00
46876;BME280;32866;50.160;14.768;2023-11-21T02:09:28;98723.72;;;6.93;100.00
46876;BME280;32866;50.160;14.768;2023-11-21T02:11:56;98697.72;;;6.76;100.00
46876;BME280;32866;50.160;14.768;2023-11-21T02:14:23;98695.00;;;6.59;100.00
46876;BME280;32866;50.160;14.768;2023-11-21T02:16:50;98734.78;;;6.86;100.00
46876;BME280;32866;50.160;14.768;2023-11-21T02:19:18;98717.84;;;6.78;100.00
46876;BME280;32866;50.160;14.768;2023-11-21T02:21:59;98701.72;;;6.71;100.00
46876;BME280;32866;50.160;14.768;2023-11-21T02:24:29;98705.63;;;6.70;100.00
46876;BME280;32866;50.160;14.768;2023-11-21T02:26:55;98718.00;;;7.04;100.00
46876;BME280;32866;50.160;14.768;2023-11-21T02:29:22;98686.44;;;6.90;100.00
46876;BME280;32866;50.160;14.768;2023-11-21T02:31:54;98705.47;;;7.06;100.00
46876;BME280;32866;50.160;14.768;2023-11-21T02:34:22;98650.41;;;6.69;100.00
46876;BME280;32866;50.160;14.768;2023-11-21T02:36:48;98710.91;;;7.06;100.00
46876;BME280;32866;50.160;14.768;2023-11-21T02:39:18;98710.69;;;7.01;100.00
46876;BME280;32866;50.160;14.768;2023-11-21T02:41:47;98673.03;;;6.66;100.00
46876;BME280;32866;50.160;14.768;2023-11-21T02:44:13;98702.38;;;6.75;100.00
46876;BME280;32866;50.160;14.768;2023-11-21T02:46:39;98718.94;;;6.97;100.00
46876;BME280;32866;50.160;14.768;2023-11-21T02:49:06;98720.19;;;7.09;100.00
46876;BME280;32866;50.160;14.768;2023-11-21T02:51:33;98712.16;;;7.18;100.00
46876;BME280;32866;50.160;14.768;2023-11-21T02:53:59;98689.59;;;6.88;100.00
46876;BME280;32866;50.160;14.768;2023-11-21T02:56:26;98682.94;;;6.60;100.00
46876;BME280;32866;50.160;14.768;2023-11-21T02:58:55;98711.84;;;6.71;100.00
46876;BME280;32866;50.160;14.768;2023-11-21T03:01:21;98699.44;;;6.53;100.00
46876;BME280;32866;50.160;14.768;2023-11-21T03:03:47;98677.00;;;6.16;100.00
46876;BME280;32866;50.160;14.768;2023-11-21T03:06:18;98665.59;;;6.05;100.00
46876;BME280;32866;50.160;14.768;2023-11-21T03:08:44;98711.34;;;6.26;100.00
46876;BME280;32866;50.160;14.768;2023-11-21T03:11:10;98721.38;;;6.29;100.00
46876;BME280;32866;50.160;14.768;2023-11-21T03:13:36;98733.03;;;6.30;100.00
46876;BME280;32866;50.160;14.768;2023-11-21T03:16:02;98668.25;;;6.08;100.00
46876;BME280;32866;50.160;14.768;2023-11-21T03:18:28;98730.91;;;6.54;100.00
46876;BME280;32866;50.160;14.768;2023-11-21T03:20:55;98697.06;;;6.39;100.00
46876;BME280;32866;50.160;14.768;2023-11-21T03:23:21;98711.44;;;6.56;100.00
46876;BME280;32866;50.160;14.768;2023-11-21T03:25:47;98717.75;;;6.82;100.00
46876;BME280;32866;50.160;14.768;2023-11-21T03:28:13;98709.75;;;6.91;100.00
46876;BME280;32866;50.160;14.768;2023-11-21T03:30:39;98651.13;;;6.57;100.00
46876;BME280;32866;50.160;14.768;2023-11-21T03:33:05;98723.34;;;7.08;100.00
46876;BME280;32866;50.160;14.768;2023-11-21T03:35:31;98686.94;;;6.85;100.00
46876;BME280;32866;50.160;14.768;2023-11-21T03:37:57;98717.03;;;7.11;100.00
46876;BME280;32866;50.160;14.768;2023-11-21T03:40:22;98719.41;;;7.09;100.00
46876;BME280;32866;50.160;14.768;2023-11-21T03:42:49;98684.75;;;6.80;100.00
46876;BME280;32866;50.160;14.768;2023-11-21T03:45:15;98686.34;;;6.94;100.00
46876;BME280;32866;50.160;14.768;2023-11-21T03:47:44;98727.75;;;7.18;100.00
46876;BME280;32866;50.160;14.768;2023-11-21T03:50:10;98726.19;;;7.17;100.00
46876;BME280;32866;50.160;14.768;2023-11-21T03:52:37;98710.78;;;6.97;100.00
46876;BME280;32866;50.160;14.768;2023-11-21T03:55:03;98703.13;;;6.92;100.00
46876;BME280;32866;50.160;14.768;2023-11-21T03:57:29;98691.13;;;6.90;100.00
46876;BME280;32866;50.160;14.768;2023-11-21T03:59:55;98700.41;;;6.92;100.00
46876;BME280;32866;50.160;14.768;2023-11-21T04:02:21;98697.31;;;6.90;100.00
46876;BME280;32866;50.160;14.768;2023-11-21T04:04:47;98698.09;;;6.91;100.00
46876;BME280;32866;50.160;14.768;2023-11-21T04:07:13;98717.41;;;6.96;100.00
46876;BME280;32866;50.160;14.768;2023-11-21T04:09:40;98754.81;;;7.09;100.00
46876;BME280;32866;50.160;14.768;2023-11-21T04:12:07;98689.72;;;6.68;100.00
46876;BME280;32866;50.160;14.768;2023-11-21T04:14:35;98716.16;;;6.84;100.00
46876;BME280;32866;50.160;14.768;2023-11-21T04:17:01;98737.28;;;7.10;100.00
46876;BME280;32866;50.160;14.768;2023-11-21T04:19:27;98725.56;;;6.96;100.00
46876;BME280;32866;50.160;14.768;2023-11-21T04:21:53;98704.50;;;6.84;100.00
46876;BME280;32866;50.160;14.768;2023-11-21T04:24:19;98752.59;;;7.20;100.00
46876;BME280;32866;50.160;14.768;2023-11-21T04:26:45;98733.03;;;7.09;100.00
46876;BME280;32866;50.160;14.768;2023-11-21T04:29:11;98763.06;;;7.21;100.00
46876;BME280;32866;50.160;14.768;2023-11-21T04:31:37;98759.91;;;7.23;100.00
46876;BME280;32866;50.160;14.768;2023-11-21T04:34:03;98769.78;;;7.17;100.00
46876;BME280;32866;50.160;14.768;2023-11-21T04:36:30;98767.69;;;7.08;100.00
46876;BME280;32866;50.160;14.768;2023-11-21T04:38:59;98733.94;;;6.89;100.00
46876;BME280;32866;50.160;14.768;2023-11-21T04:41:25;98762.97;;;7.25;100.00
46876;BME280;32866;50.160;14.768;2023-11-21T04:43:51;98734.66;;;7.06;100.00
46876;BME280;32866;50.160;14.768;2023-11-21T04:46:17;98757.50;;;7.25;100.00
46876;BME280;32866;50.160;14.768;2023-11-21T04:48:44;98762.66;;;7.06;100.00
46876;BME280;32866;50.160;14.768;2023-11-21T04:51:10;98765.19;;;7.14;100.00
46876;BME280;32866;50.160;14.768;2023-11-21T04:53:38;98766.94;;;7.08;100.00
46876;BME280;32866;50.160;14.768;2023-11-21T04:56:05;98719.50;;;6.76;100.00
46876;BME280;32866;50.160;14.768;2023-11-21T04:58:31;98715.03;;;6.82;100.00
46876;BME280;32866;50.160;14.768;2023-11-21T05:00:58;98721.00;;;6.77;100.00
46876;BME280;32866;50.160;14.768;2023-11-21T05:03:24;98777.16;;;7.03;100.00
46876;BME280;32866;50.160;14.768;2023-11-21T05:05:50;98724.09;;;6.62;100.00
46876;BME280;32866;50.160;14.768;2023-11-21T05:08:16;98770.34;;;6.95;100.00
46876;BME280;32866;50.160;14.768;2023-11-21T05:10:43;98780.16;;;6.93;100.00
46876;BME280;32866;50.160;14.768;2023-11-21T05:13:09;98721.28;;;6.66;100.00
46876;BME280;32866;50.160;14.768;2023-11-21T05:15:36;98746.34;;;6.90;100.00
46876;BME280;32866;50.160;14.768;2023-11-21T05:18:03;98765.41;;;7.06;100.00
46876;BME280;32866;50.160;14.768;2023-11-21T05:20:38;98783.94;;;7.12;100.00
46876;BME280;32866;50.160;14.768;2023-11-21T05:23:05;98761.34;;;6.82;100.00
46876;BME280;32866;50.160;14.768;2023-11-21T05:25:31;98778.09;;;6.97;100.00
46876;BME280;32866;50.160;14.768;2023-11-21T05:27:58;98780.25;;;6.89;100.00
46876;BME280;32866;50.160;14.768;2023-11-21T05:30:27;98790.13;;;6.83;100.00
46876;BME280;32866;50.160;14.768;2023-11-21T05:32:53;98789.59;;;6.88;100.00
46876;BME280;32866;50.160;14.768;2023-11-21T05:35:19;98797.09;;;6.84;100.00
46876;BME280;32866;50.160;14.768;2023-11-21T05:37:45;98758.31;;;6.47;100.00
46876;BME280;32866;50.160;14.768;2023-11-21T05:40:11;98767.66;;;6.46;100.00
46876;BME280;32866;50.160;14.768;2023-11-21T05:42:39;98785.00;;;6.68;100.00
46876;BME280;32866;50.160;14.768;2023-11-21T05:45:07;98768.31;;;6.50;100.00
46876;BME280;32866;50.160;14.768;2023-11-21T05:47:41;98796.78;;;6.65;100.00
46876;BME280;32866;50.160;14.768;2023-11-21T05:50:09;98758.28;;;6.30;100.00
46876;BME280;32866;50.160;14.768;2023-11-21T05:52:36;98796.91;;;6.58;100.00
46876;BME280;32866;50.160;14.768;2023-11-21T05:55:03;98795.75;;;6.59;100.00
46876;BME280;32866;50.160;14.768;2023-11-21T05:57:37;98794.09;;;6.62;100.00
46876;BME280;32866;50.160;14.768;2023-11-21T06:00:04;98800.25;;;6.66;100.00
46876;BME280;32866;50.160;14.768;2023-11-21T06:02:39;98776.66;;;6.43;100.00
46876;BME280;32866;50.160;14.768;2023-11-21T06:05:07;98811.56;;;6.64;100.00
46876;BME280;32866;50.160;14.768;2023-11-21T06:07:39;98822.63;;;6.57;100.00
46876;BME280;32866;50.160;14.768;2023-11-21T06:10:06;98756.34;;;6.31;100.00
46876;BME280;32866;50.160;14.768;2023-11-21T06:12:34;98762.19;;;6.29;100.00
46876;BME280;32866;50.160;14.768;2023-11-21T06:15:03;98819.06;;;6.60;100.00
46876;BME280;32866;50.160;14.768;2023-11-21T06:17:34;98817.94;;;6.58;100.00
46876;BME280;32866;50.160;14.768;2023-11-21T06:20:04;98822.97;;;6.59;100.00
46876;BME280;32866;50.160;14.768;2023-11-21T06:22:38;98800.31;;;6.46;100.00
46876;BME280;32866;50.160;14.768;2023-11-21T06:25:05;98829.44;;;6.65;100.00
46876;BME280;32866;50.160;14.768;2023-11-21T06:27:32;98839.91;;;6.67;100.00
46876;BME280;32866;50.160;14.768;2023-11-21T06:29:58;98829.75;;;6.51;100.00
46876;BME280;32866;50.160;14.768;2023-11-21T06:32:24;98835.28;;;6.47;100.00
46876;BME280;32866;50.160;14.768;2023-11-21T06:34:51;98797.22;;;6.27;100.00
46876;BME280;32866;50.160;14.768;2023-11-21T06:37:20;98822.00;;;6.49;100.00
46876;BME280;32866;50.160;14.768;2023-11-21T06:39:49;98816.66;;;6.46;100.00
46876;BME280;32866;50.160;14.768;2023-11-21T06:42:18;98832.81;;;6.53;100.00
46876;BME280;32866;50.160;14.768;2023-11-21T06:44:47;98840.66;;;6.67;100.00
46876;BME280;32866;50.160;14.768;2023-11-21T06:47:14;98840.91;;;6.73;100.00
46876;BME280;32866;50.160;14.768;2023-11-21T06:49:42;98834.09;;;6.65;100.00
46876;BME280;32866;50.160;14.768;2023-11-21T06:52:08;98847.16;;;6.74;100.00
46876;BME280;32866;50.160;14.768;2023-11-21T06:54:34;98851.06;;;6.73;100.00
46876;BME280;32866;50.160;14.768;2023-11-21T06:57:00;98858.03;;;6.74;100.00
46876;BME280;32866;50.160;14.768;2023-11-21T06:59:28;98854.94;;;6.72;100.00
46876;BME280;32866;50.160;14.768;2023-11-21T07:01:54;98798.09;;;6.41;100.00
46876;BME280;32866;50.160;14.768;2023-11-21T07:04:20;98828.50;;;6.56;100.00
46876;BME280;32866;50.160;14.768;2023-11-21T07:06:46;98840.16;;;6.73;100.00
46876;BME280;32866;50.160;14.768;2023-11-21T07:09:12;98852.41;;;6.81;100.00
46876;BME280;32866;50.160;14.768;2023-11-21T07:11:38;98824.13;;;6.58;100.00
46876;BME280;32866;50.160;14.768;2023-11-21T07:14:05;98857.59;;;6.92;100.00
46876;BME280;32866;50.160;14.768;2023-11-21T07:16:36;98814.47;;;6.57;100.00
46876;BME280;32866;50.160;14.768;2023-11-21T07:19:04;98857.38;;;7.02;100.00
46876;BME280;32866;50.160;14.768;2023-11-21T07:21:35;98856.66;;;6.98;100.00
46876;BME280;32866;50.160;14.768;2023-11-21T07:24:02;98855.09;;;7.30;100.00
46876;BME280;32866;50.160;14.768;2023-11-21T07:26:29;98859.72;;;7.33;100.00
46876;BME280;32866;50.160;14.768;2023-11-21T07:28:55;98865.16;;;7.33;100.00
46876;BME280;32866;50.160;14.768;2023-11-21T07:31:22;98831.63;;;7.20;100.00
46876;BME280;32866;50.160;14.768;2023-11-21T07:33:48;98864.44;;;7.46;100.00
46876;BME280;32866;50.160;14.768;2023-11-21T07:36:15;98867.56;;;7.60;100.00
46876;BME280;32866;50.160;14.768;2023-11-21T07:38:42;98873.09;;;7.73;100.00
46876;BME280;32866;50.160;14.768;2023-11-21T07:41:08;98859.59;;;7.83;100.00
46876;BME280;32866;50.160;14.768;2023-11-21T07:43:37;98864.53;;;7.88;100.00
46876;BME280;32866;50.160;14.768;2023-11-21T07:46:05;98831.09;;;7.84;100.00
46876;BME280;32866;50.160;14.768;2023-11-21T07:48:31;98822.53;;;7.98;100.00
46876;BME280;32866;50.160;14.768;2023-11-21T07:50:57;98876.75;;;8.38;100.00
46876;BME280;32866;50.160;14.768;2023-11-21T07:53:26;98864.94;;;8.41;100.00
46876;BME280;32866;50.160;14.768;2023-11-21T07:55:54;98867.66;;;8.41;100.00
46876;BME280;32866;50.160;14.768;2023-11-21T07:58:20;98865.03;;;8.38;100.00
46876;BME280;32866;50.160;14.768;2023-11-21T08:00:46;98870.84;;;8.40;100.00
46876;BME280;32866;50.160;14.768;2023-11-21T08:03:16;98873.34;;;8.34;100.00
46876;BME280;32866;50.160;14.768;2023-11-21T08:05:42;98872.59;;;8.33;100.00
46876;BME280;32866;50.160;14.768;2023-11-21T08:08:08;98877.06;;;8.40;100.00
46876;BME280;32866;50.160;14.768;2023-11-21T08:10:34;98881.69;;;8.43;100.00
46876;BME280;32866;50.160;14.768;2023-11-21T08:13:05;98868.13;;;8.40;100.00
46876;BME280;32866;50.160;14.768;2023-11-21T08:15:32;98892.84;;;8.49;100.00
46876;BME280;32866;50.160;14.768;2023-11-21T08:17:58;98851.50;;;8.21;100.00
46876;BME280;32866;50.160;14.768;2023-11-21T08:20:27;98854.00;;;8.28;100.00
46876;BME280;32866;50.160;14.768;2023-11-21T08:22:54;98843.78;;;8.45;100.00
46876;BME280;32866;50.160;14.768;2023-11-21T08:25:21;98873.31;;;8.63;100.00
46876;BME280;32866;50.160;14.768;2023-11-21T08:27:47;98905.63;;;8.90;100.00
46876;BME280;32866;50.160;14.768;2023-11-21T08:30:14;98831.34;;;8.57;100.00
46876;BME280;32866;50.160;14.768;2023-11-21T08:32:40;98892.19;;;8.96;100.00
46876;BME280;32866;50.160;14.768;2023-11-21T08:35:07;98845.00;;;8.70;100.00
46876;BME280;32866;50.160;14.768;2023-11-21T08:37:33;98887.59;;;8.93;100.00
46876;BME280;32866;50.160;14.768;2023-11-21T08:40:04;98849.47;;;8.64;100.00
46876;BME280;32866;50.160;14.768;2023-11-21T08:42:35;98889.78;;;8.85;100.00
46876;BME280;32866;50.160;14.768;2023-11-21T08:45:01;98899.84;;;8.88;100.00
46876;BME280;32866;50.160;14.768;2023-11-21T08:47:27;98901.03;;;9.00;100.00
46876;BME280;32866;50.160;14.768;2023-11-21T08:49:53;98912.97;;;8.94;100.00
46876;BME280;32866;50.160;14.768;2023-11-21T08:52:19;98864.00;;;8.61;100.00
46876;BME280;32866;50.160;14.768;2023-11-21T08:54:52;98916.00;;;8.96;100.00
46876;BME280;32866;50.160;14.768;2023-11-21T08:57:22;98911.84;;;8.91;100.00
46876;BME280;32866;50.160;14.768;2023-11-21T08:59:48;98889.47;;;8.83;100.00
46876;BME280;32866;50.160;14.768;2023-11-21T09:02:14;98889.88;;;8.95;100.00
46876;BME280;32866;50.160;14.768;2023-11-21T09:04:40;98907.78;;;9.21;100.00
46876;BME280;32866;50.160;14.768;2023-11-21T09:07:06;98891.84;;;9.07;100.00
46876;BME280;32866;50.160;14.768;2023-11-21T09:09:32;98882.22;;;9.02;100.00
46876;BME280;32866;50.160;14.768;2023-11-21T09:11:58;98889.56;;;8.93;100.00
46876;BME280;32866;50.160;14.768;2023-11-21T09:14:26;98924.41;;;9.14;100.00
46876;BME280;32866;50.160;14.768;2023-11-21T09:16:52;98908.59;;;8.83;100.00
46876;BME280;32866;50.160;14.768;2023-11-21T09:19:18;98923.03;;;8.97;100.00
46876;BME280;32866;50.160;14.768;2023-11-21T09:21:44;98940.28;;;8.94;100.00
46876;BME280;32866;50.160;14.768;2023-11-21T09:24:10;98934.59;;;8.88;100.00
46876;BME280;32866;50.160;14.768;2023-11-21T09:26:36;98944.66;;;8.78;100.00
46876;BME280;32866;50.160;14.768;2023-11-21T09:29:02;98932.84;;;8.81;100.00
46876;BME280;32866;50.160;14.768;2023-11-21T09:31:28;98932.84;;;8.81;100.00
46876;BME280;32866;50.160;14.768;2023-11-21T09:33:54;98931.84;;;8.88;100.00
46876;BME280;32866;50.160;14.768;2023-11-21T09:36:20;98942.03;;;8.87;100.00
46876;BME280;32866;50.160;14.768;2023-11-21T09:38:49;98891.53;;;8.53;100.00
46876;BME280;32866;50.160;14.768;2023-11-21T09:41:23;98929.31;;;8.68;100.00
46876;BME280;32866;50.160;14.768;2023-11-21T09:43:56;98923.97;;;8.64;100.00
46876;BME280;32866;50.160;14.768;2023-11-21T09:46:26;98936.56;;;8.87;100.00
46876;BME280;32866;50.160;14.768;2023-11-21T09:48:54;98935.69;;;8.90;100.00
46876;BME280;32866;50.160;14.768;2023-11-21T09:51:23;98936.22;;;9.11;100.00
46876;BME280;32866;50.160;14.768;2023-11-21T09:53:53;98940.25;;;9.19;100.00
46876;BME280;32866;50.160;14.768;2023-11-21T09:56:19;98936.91;;;9.15;100.00
46876;BME280;32866;50.160;14.768;2023-11-21T09:58:53;98958.41;;;9.26;100.00
46876;BME280;32866;50.160;14.768;2023-11-21T10:01:20;98919.84;;;8.98;100.00
46876;BME280;32866;50.160;14.768;2023-11-21T10:03:46;98940.59;;;9.21;100.00
46876;BME280;32866;50.160;14.768;2023-11-21T10:06:13;98949.22;;;9.20;100.00
46876;BME280;32866;50.160;14.768;2023-11-21T10:08:42;98930.78;;;8.98;100.00
46876;BME280;32866;50.160;14.768;2023-11-21T10:11:09;98914.59;;;8.91;100.00
46876;BME280;32866;50.160;14.768;2023-11-21T10:13:37;98949.34;;;9.29;100.00
46876;BME280;32866;50.160;14.768;2023-11-21T10:16:07;98955.56;;;9.29;100.00
46876;BME280;32866;50.160;14.768;2023-11-21T10:18:37;98924.31;;;9.18;100.00
46876;BME280;32866;50.160;14.768;2023-11-21T10:21:07;98909.22;;;9.13;100.00
46876;BME280;32866;50.160;14.768;2023-11-21T10:23:34;98893.34;;;9.21;100.00
46876;BME280;32866;50.160;14.768;2023-11-21T10:26:01;98913.78;;;9.42;100.00
46876;BME280;32866;50.160;14.768;2023-11-21T10:28:27;98910.69;;;9.40;100.00
46876;BME280;32866;50.160;14.768;2023-11-21T10:30:53;98924.16;;;9.47;100.00
46876;BME280;32866;50.160;14.768;2023-11-21T10:33:27;98954.31;;;9.91;100.00
46876;BME280;32866;50.160;14.768;2023-11-21T10:35:53;98932.03;;;9.80;100.00
46876;BME280;32866;50.160;14.768;2023-11-21T10:38:23;98941.09;;;10.12;100.00
46876;BME280;32866;50.160;14.768;2023-11-21T10:40:51;98954.28;;;10.26;100.00
46876;BME280;32866;50.160;14.768;2023-11-21T10:43:17;98952.22;;;10.52;100.00
46876;BME280;32866;50.160;14.768;2023-11-21T10:45:44;98938.03;;;10.54;100.00
46876;BME280;32866;50.160;14.768;2023-11-21T10:48:13;98950.56;;;10.86;100.00
46876;BME280;32866;50.160;14.768;2023-11-21T10:50:47;98944.34;;;10.95;100.00
46876;BME280;32866;50.160;14.768;2023-11-21T10:53:13;98895.38;;;10.44;100.00
46876;BME280;32866;50.160;14.768;2023-11-21T10:55:39;98940.78;;;10.85;100.00
46876;BME280;32866;50.160;14.768;2023-11-21T10:58:05;98948.31;;;11.03;100.00
46876;BME280;32866;50.160;14.768;2023-11-21T11:00:33;98894.41;;;10.60;100.00
46876;BME280;32866;50.160;14.768;2023-11-21T11:02:59;98949.28;;;10.47;100.00
46876;BME280;32866;50.160;14.768;2023-11-21T11:05:27;98950.66;;;10.51;100.00
46876;BME280;32866;50.160;14.768;2023-11-21T11:08:02;98945.13;;;10.64;100.00
46876;BME280;32866;50.160;14.768;2023-11-21T11:10:29;98916.97;;;10.42;100.00
46876;BME280;32866;50.160;14.768;2023-11-21T11:12:57;98912.59;;;10.44;100.00
46876;BME280;32866;50.160;14.768;2023-11-21T11:15:24;98929.34;;;10.77;100.00
46876;BME280;32866;50.160;14.768;2023-11-21T11:17:50;98919.06;;;11.00;100.00
46876;BME280;32866;50.160;14.768;2023-11-21T11:20:17;98914.84;;;11.18;100.00
46876;BME280;32866;50.160;14.768;2023-11-21T11:23:09;98943.13;;;11.83;100.00
46876;BME280;32866;50.160;14.768;2023-11-21T11:26:50;98948.31;;;12.46;100.00
46876;BME280;32866;50.160;14.768;2023-11-21T11:28:51;98946.94;;;12.50;100.00
46876;BME280;32866;50.160;14.768;2023-11-21T11:34:26;98939.00;;;12.52;100.00
46876;BME280;32866;50.160;14.768;2023-11-21T11:37:06;98940.38;;;12.48;100.00
46876;BME280;32866;50.160;14.768;2023-11-21T11:39:38;98935.22;;;12.31;100.00
46876;BME280;32866;50.160;14.768;2023-11-21T11:42:14;98938.13;;;11.91;100.00
46876;BME280;32866;50.160;14.768;2023-11-21T11:47:13;98898.25;;;10.71;100.00
46876;BME280;32866;50.160;14.768;2023-11-21T11:49:56;98936.56;;;10.62;100.00
46876;BME280;32866;50.160;14.768;2023-11-21T11:52:39;98945.91;;;10.43;100.00
46876;BME280;32866;50.160;14.768;2023-11-21T11:55:08;98938.84;;;10.32;100.00
46876;BME280;32866;50.160;14.768;2023-11-21T11:57:36;98943.34;;;10.26;100.00
46876;BME280;32866;50.160;14.768;2023-11-21T12:02:44;98900.47;;;9.88;100.00
46876;BME280;32866;50.160;14.768;2023-11-21T12:05:21;98948.03;;;10.03;100.00
46876;BME280;32866;50.160;14.768;2023-11-21T12:07:53;98942.19;;;9.92;100.00
46876;BME280;32866;50.160;14.768;2023-11-21T12:10:32;98944.25;;;9.88;100.00
46876;BME280;32866;50.160;14.768;2023-11-21T12:13:01;98932.91;;;9.77;100.00
46876;BME280;32866;50.160;14.768;2023-11-21T12:15:27;98941.06;;;9.68;100.00
46876;BME280;32866;50.160;14.768;2023-11-21T12:17:57;98914.47;;;9.20;100.00
46876;BME280;32866;50.160;14.768;2023-11-21T12:20:27;98946.81;;;9.35;100.00
46876;BME280;32866;50.160;14.768;2023-11-21T12:22:58;98946.91;;;9.31;100.00
46876;BME280;32866;50.160;14.768;2023-11-21T12:25:31;98946.91;;;9.31;100.00
46876;BME280;32866;50.160;14.768;2023-11-21T12:27:59;98918.06;;;9.17;100.00
46876;BME280;32866;50.160;14.768;2023-11-21T12:30:30;98903.19;;;9.18;100.00
46876;BME280;32866;50.160;14.768;2023-11-21T12:32:58;98943.38;;;9.56;100.00
46876;BME280;32866;50.160;14.768;2023-11-21T12:35:30;98951.47;;;9.60;100.00
46876;BME280;32866;50.160;14.768;2023-11-21T12:37:57;98953.00;;;9.48;100.00
46876;BME280;32866;50.160;14.768;2023-11-21T12:40:23;98914.91;;;9.06;100.00
46876;BME280;32866;50.160;14.768;2023-11-21T12:42:51;98959.47;;;9.41;100.00
46876;BME280;32866;50.160;14.768;2023-11-21T12:45:23;98960.28;;;9.29;100.00
46876;BME280;32866;50.160;14.768;2023-11-21T12:48:00;98956.78;;;9.28;100.00
46876;BME280;32866;50.160;14.768;2023-11-21T12:50:30;98931.00;;;9.04;100.00
46876;BME280;32866;50.160;14.768;2023-11-21T12:53:10;98965.00;;;9.28;100.00
46876;BME280;32866;50.160;14.768;2023-11-21T12:55:43;98958.84;;;9.24;100.00
46876;BME280;32866;50.160;14.768;2023-11-21T12:58:16;98947.72;;;9.06;100.00
46876;BME280;32866;50.160;14.768;2023-11-21T13:00:46;98922.56;;;8.85;100.00